createdAt,value
2022-12-31T00:00:07.463Z,86.75
2022-12-31T00:02:33.954Z,86.58
2022-12-31T00:05:00.374Z,86.84
2022-12-31T00:07:26.761Z,87.33
2022-12-31T00:09:53.140Z,87.85
2022-12-31T00:12:19.580Z,87.34
2022-12-31T00:14:45.948Z,87.82
2022-12-31T00:17:12.346Z,88.34
2022-12-31T00:19:38.732Z,88.27
2022-12-31T00:22:05.121Z,88.09
2022-12-31T00:24:31.534Z,87.99
2022-12-31T00:26:57.950Z,87.64
2022-12-31T00:29:24.408Z,87.97
2022-12-31T00:31:50.778Z,88.08
2022-12-31T00:34:17.201Z,88.25
2022-12-31T00:36:45.904Z,88.08
2022-12-31T00:39:12.430Z,87.51
2022-12-31T00:41:38.990Z,87.42
2022-12-31T00:44:05.955Z,87.37
2022-12-31T00:46:32.469Z,87.37
2022-12-31T00:48:58.926Z,87.61
2022-12-31T00:51:28.909Z,86.99
2022-12-31T00:53:57.053Z,87.45
2022-12-31T00:56:26.137Z,88.04
2022-12-31T00:58:52.956Z,87.37
2022-12-31T01:01:19.386Z,87.32
2022-12-31T01:03:46.987Z,87.54
2022-12-31T01:06:13.995Z,87.54
2022-12-31T01:08:40.374Z,87.29
2022-12-31T01:11:19.402Z,87.42
2022-12-31T01:13:55.315Z,87.49
2022-12-31T01:16:25.031Z,87.44
2022-12-31T01:18:51.672Z,87.36
2022-12-31T01:21:19.325Z,87.35
2022-12-31T01:23:45.751Z,86.86
2022-12-31T01:26:14.653Z,86.91
2022-12-31T01:28:41.509Z,86.34
2022-12-31T01:31:10.883Z,86.27
2022-12-31T01:33:37.684Z,85.67
2022-12-31T01:36:05.146Z,85.87
2022-12-31T01:38:32.962Z,85.96
2022-12-31T01:40:59.365Z,85.60
2022-12-31T01:43:44.836Z,85.89
2022-12-31T01:46:17.349Z,85.81
2022-12-31T01:48:48.738Z,85.82
2022-12-31T01:51:15.461Z,85.84
2022-12-31T01:53:42.977Z,85.39
2022-12-31T01:56:10.189Z,85.52
2022-12-31T01:58:45.974Z,85.53
2022-12-31T02:01:19.969Z,85.61
2022-12-31T02:03:46.511Z,85.17
2022-12-31T02:06:37.935Z,85.42
2022-12-31T02:09:04.418Z,85.54
2022-12-31T02:11:36.456Z,85.33
2022-12-31T02:14:07.341Z,85.13
2022-12-31T02:16:52.030Z,85.38
2022-12-31T02:19:40.373Z,85.45
2022-12-31T02:22:44.479Z,85.32
2022-12-31T02:25:29.859Z,85.48
2022-12-31T02:28:19.567Z,85.72
2022-12-31T02:30:51.843Z,85.42
2022-12-31T02:33:32.427Z,85.67
2022-12-31T02:36:02.960Z,85.62
2022-12-31T02:38:56.073Z,85.32
2022-12-31T02:41:41.117Z,85.41
2022-12-31T02:44:25.617Z,85.50
2022-12-31T02:47:03.925Z,85.67
2022-12-31T02:49:51.641Z,85.73
2022-12-31T02:52:27.994Z,85.98
2022-12-31T02:55:03.336Z,86.34
2022-12-31T02:57:42.543Z,86.53
2022-12-31T03:00:33.979Z,86.31
2022-12-31T03:03:02.455Z,86.13
2022-12-31T03:05:32.316Z,86.76
2022-12-31T03:07:58.751Z,86.16
2022-12-31T03:10:25.625Z,85.87
2022-12-31T03:12:52.079Z,85.74
2022-12-31T03:15:37.024Z,86.15
2022-12-31T03:18:08.124Z,85.04
2022-12-31T03:21:11.432Z,84.62
2022-12-31T03:23:40.767Z,84.50
2022-12-31T03:26:10.646Z,84.76
2022-12-31T03:28:39.212Z,84.67
2022-12-31T03:31:05.870Z,84.31
2022-12-31T03:33:38.055Z,84.23
2022-12-31T03:36:10.553Z,84.16
2022-12-31T03:38:37.428Z,84.34
2022-12-31T03:41:04.133Z,84.39
2022-12-31T03:43:30.571Z,84.18
2022-12-31T03:45:59.641Z,84.37
2022-12-31T03:48:26.251Z,84.00
2022-12-31T03:50:52.693Z,83.79
2022-12-31T03:53:19.125Z,84.00
2022-12-31T03:55:45.574Z,83.74
2022-12-31T03:58:11.982Z,83.84
2022-12-31T04:00:38.541Z,84.12
2022-12-31T04:03:05.112Z,84.54
2022-12-31T04:05:32.304Z,84.20
2022-12-31T04:07:58.713Z,84.00
2022-12-31T04:10:25.246Z,84.03
2022-12-31T04:12:51.679Z,83.77
2022-12-31T04:15:20.193Z,83.87
2022-12-31T04:17:47.668Z,84.00
2022-12-31T04:20:15.455Z,83.81
2022-12-31T04:22:41.975Z,83.79
2022-12-31T04:25:11.913Z,83.89
2022-12-31T04:27:43.405Z,84.32
2022-12-31T04:30:11.676Z,84.35
2022-12-31T04:32:38.126Z,84.03
2022-12-31T04:35:04.990Z,84.69
2022-12-31T04:37:31.367Z,84.52
2022-12-31T04:40:03.505Z,84.24
2022-12-31T04:42:32.129Z,84.07
2022-12-31T04:44:58.637Z,84.51
2022-12-31T04:47:25.054Z,84.31
2022-12-31T04:49:51.444Z,84.15
2022-12-31T04:52:17.878Z,84.82
2022-12-31T04:54:44.355Z,84.81
2022-12-31T04:57:10.707Z,84.62
2022-12-31T04:59:37.144Z,84.50
2022-12-31T05:02:03.733Z,84.86
2022-12-31T05:04:30.395Z,84.98
2022-12-31T05:06:56.807Z,84.70
2022-12-31T05:09:24.183Z,85.07
2022-12-31T05:11:50.726Z,84.99
2022-12-31T05:14:17.271Z,84.27
2022-12-31T05:16:43.764Z,84.59
2022-12-31T05:19:10.189Z,84.90
2022-12-31T05:21:36.902Z,84.84
2022-12-31T05:24:03.474Z,85.01
2022-12-31T05:26:29.866Z,85.24
2022-12-31T05:28:56.526Z,85.71
2022-12-31T05:31:23.314Z,87.80
2022-12-31T05:33:49.707Z,89.44
2022-12-31T05:36:16.098Z,90.46
2022-12-31T05:38:42.524Z,90.89
2022-12-31T05:41:10.367Z,91.90
2022-12-31T05:43:36.720Z,92.59
2022-12-31T05:46:04.740Z,93.23
2022-12-31T05:48:31.795Z,93.90
2022-12-31T05:50:58.616Z,94.08
2022-12-31T05:53:25.156Z,94.19
2022-12-31T05:55:51.570Z,94.48
2022-12-31T05:58:18.025Z,94.32
2022-12-31T06:00:44.705Z,94.42
2022-12-31T06:03:11.376Z,94.79
2022-12-31T06:05:42.496Z,95.14
2022-12-31T06:08:10.164Z,95.28
2022-12-31T06:10:36.840Z,95.31
2022-12-31T06:13:03.711Z,95.21
2022-12-31T06:15:30.194Z,95.54
2022-12-31T06:17:56.756Z,95.68
2022-12-31T06:20:23.131Z,95.48
2022-12-31T06:22:49.512Z,94.87
2022-12-31T06:25:15.998Z,94.79
2022-12-31T06:27:42.448Z,94.83
2022-12-31T06:30:10.650Z,94.94
2022-12-31T06:32:37.038Z,94.85
2022-12-31T06:35:03.736Z,94.95
2022-12-31T06:37:30.097Z,94.37
2022-12-31T06:39:56.474Z,94.21
2022-12-31T06:42:22.853Z,93.51
2022-12-31T06:44:49.225Z,93.42
2022-12-31T06:47:15.591Z,93.11
2022-12-31T06:49:41.967Z,92.67
2022-12-31T06:52:08.342Z,92.24
2022-12-31T06:54:34.982Z,91.92
2022-12-31T06:57:01.666Z,91.78
2022-12-31T06:59:29.945Z,91.56
2022-12-31T07:02:53.754Z,90.76
2022-12-31T07:05:58.573Z,90.72
2022-12-31T07:08:39.106Z,89.26
2022-12-31T07:11:18.330Z,89.23
2022-12-31T07:13:59.372Z,88.27
2022-12-31T07:16:49.115Z,87.78
2022-12-31T07:19:46.426Z,87.29
2022-12-31T07:22:16.137Z,86.29
2022-12-31T07:24:43.507Z,86.38
2022-12-31T07:27:30.841Z,86.44
2022-12-31T07:30:29.332Z,86.12
2022-12-31T07:33:09.245Z,86.09
2022-12-31T07:36:00.178Z,85.44
2022-12-31T07:38:33.539Z,84.63
2022-12-31T07:41:38.995Z,83.92
2022-12-31T07:44:26.686Z,83.41
2022-12-31T07:47:02.104Z,83.54
2022-12-31T07:49:30.573Z,83.10
2022-12-31T07:51:57.306Z,83.14
2022-12-31T07:54:23.793Z,82.40
2022-12-31T07:56:50.734Z,82.34
2022-12-31T07:59:41.186Z,82.09
2022-12-31T08:02:56.930Z,81.66
2022-12-31T08:05:39.121Z,81.21
2022-12-31T08:08:23.589Z,81.08
2022-12-31T08:11:27.862Z,80.92
2022-12-31T08:13:56.270Z,80.82
2022-12-31T08:16:23.212Z,80.81
2022-12-31T08:18:49.876Z,81.11
2022-12-31T08:21:34.810Z,80.23
2022-12-31T08:24:17.619Z,80.09
2022-12-31T08:27:04.999Z,79.69
2022-12-31T08:29:44.959Z,78.94
2022-12-31T08:32:32.438Z,79.00
2022-12-31T08:35:06.042Z,79.19
2022-12-31T08:37:43.784Z,79.12
2022-12-31T08:40:28.075Z,78.86
2022-12-31T08:43:23.560Z,79.17
2022-12-31T08:45:52.979Z,78.33
2022-12-31T08:48:32.769Z,78.89
2022-12-31T08:50:59.626Z,78.62
2022-12-31T08:53:26.367Z,78.49
2022-12-31T08:56:01.587Z,78.42
2022-12-31T08:58:48.231Z,78.87
2022-12-31T09:01:21.567Z,78.54
2022-12-31T09:03:57.551Z,78.23
2022-12-31T09:06:31.489Z,77.88
2022-12-31T09:09:16.091Z,77.69
2022-12-31T09:12:06.260Z,77.57
2022-12-31T09:14:42.990Z,77.72
2022-12-31T09:17:39.558Z,77.04
2022-12-31T09:20:06.877Z,77.13
2022-12-31T09:22:33.709Z,76.56
2022-12-31T09:25:00.371Z,76.03
2022-12-31T09:28:05.679Z,76.35
2022-12-31T09:30:50.661Z,76.55
2022-12-31T09:33:29.170Z,75.86
2022-12-31T09:36:01.075Z,76.14
2022-12-31T09:38:35.570Z,76.14
2022-12-31T09:41:43.484Z,76.00
2022-12-31T09:44:31.707Z,76.22
2022-12-31T09:47:07.290Z,76.26
2022-12-31T09:49:52.560Z,76.37
2022-12-31T09:52:27.777Z,76.06
2022-12-31T09:55:01.481Z,76.28
2022-12-31T09:57:46.729Z,76.02
2022-12-31T10:00:21.278Z,75.37
2022-12-31T10:03:07.945Z,75.12
2022-12-31T10:05:53.878Z,75.73
2022-12-31T10:08:39.468Z,75.62
2022-12-31T10:11:19.587Z,75.12
2022-12-31T10:14:14.749Z,74.75
2022-12-31T10:17:09.033Z,74.72
2022-12-31T10:19:47.567Z,74.50
2022-12-31T10:22:51.672Z,73.67
2022-12-31T10:25:43.799Z,74.22
2022-12-31T10:28:38.618Z,73.68
2022-12-31T10:31:29.980Z,74.54
2022-12-31T10:34:22.638Z,72.30
2022-12-31T10:36:55.072Z,71.82
2022-12-31T10:39:30.176Z,72.33
2022-12-31T10:42:20.949Z,71.79
2022-12-31T10:44:47.261Z,71.74
2022-12-31T10:47:42.461Z,71.19
2022-12-31T10:50:18.259Z,70.72
2022-12-31T10:53:04.995Z,70.80
2022-12-31T10:55:50.099Z,70.61
2022-12-31T10:58:35.457Z,71.22
2022-12-31T11:01:14.641Z,70.97
2022-12-31T11:04:18.786Z,71.13
2022-12-31T11:06:51.123Z,71.40
2022-12-31T11:09:39.498Z,70.88
2022-12-31T11:12:43.743Z,70.49
2022-12-31T11:15:22.584Z,70.56
2022-12-31T11:18:26.849Z,70.98
2022-12-31T11:20:55.711Z,71.35
2022-12-31T11:23:53.400Z,70.31
2022-12-31T11:26:40.554Z,70.30
2022-12-31T11:29:24.380Z,70.42
2022-12-31T11:32:12.899Z,69.49
2022-12-31T11:34:48.381Z,70.64
2022-12-31T11:37:17.822Z,68.94
2022-12-31T11:40:15.035Z,68.41
2022-12-31T11:43:01.581Z,68.34
2022-12-31T11:45:53.973Z,67.62
2022-12-31T11:48:49.825Z,68.39
2022-12-31T11:51:19.241Z,67.69
2022-12-31T11:53:48.800Z,68.58
2022-12-31T11:56:23.145Z,68.52
2022-12-31T11:58:52.363Z,68.33
2022-12-31T12:01:32.201Z,68.07
2022-12-31T12:03:58.925Z,67.52
2022-12-31T12:06:30.364Z,67.32
2022-12-31T12:09:01.742Z,67.55
2022-12-31T12:11:32.375Z,66.88
2022-12-31T12:13:58.841Z,66.85
2022-12-31T12:16:28.166Z,67.58
2022-12-31T12:19:07.054Z,66.89
2022-12-31T12:21:33.922Z,68.13
2022-12-31T12:24:14.654Z,67.44
2022-12-31T12:26:44.441Z,67.02
2022-12-31T12:29:19.424Z,66.49
2022-12-31T12:32:01.976Z,67.87
2022-12-31T12:34:35.281Z,66.96
2022-12-31T12:37:02.116Z,67.19
2022-12-31T12:39:31.725Z,67.07
2022-12-31T12:42:03.559Z,67.17
2022-12-31T12:44:30.803Z,66.78
2022-12-31T12:46:58.638Z,67.63
2022-12-31T12:49:51.424Z,67.82
2022-12-31T12:52:39.555Z,67.37
2022-12-31T12:55:27.295Z,66.82
2022-12-31T12:58:07.374Z,67.47
2022-12-31T13:00:51.316Z,67.31
2022-12-31T13:03:29.841Z,67.84
2022-12-31T13:06:36.986Z,67.82
2022-12-31T13:09:47.367Z,67.34
2022-12-31T13:13:13.816Z,68.36
2022-12-31T13:15:31.019Z,67.47
2022-12-31T13:18:03.937Z,67.64
2022-12-31T13:20:44.024Z,68.01
2022-12-31T13:23:34.891Z,68.36
2022-12-31T13:26:24.147Z,68.08
2022-12-31T13:28:52.828Z,67.62
2022-12-31T13:31:27.539Z,67.02
2022-12-31T13:34:00.233Z,67.62
2022-12-31T13:36:29.814Z,67.29
2022-12-31T13:39:00.674Z,67.77
2022-12-31T13:41:32.481Z,67.15
2022-12-31T13:43:59.967Z,67.62
2022-12-31T13:46:41.380Z,67.67
2022-12-31T13:49:24.662Z,66.89
2022-12-31T13:51:56.118Z,67.38
2022-12-31T13:54:44.452Z,67.97
2022-12-31T13:57:26.861Z,67.42
2022-12-31T13:59:58.523Z,67.41
2022-12-31T14:02:42.577Z,68.39
2022-12-31T14:05:11.744Z,67.84
2022-12-31T14:07:46.177Z,67.91
2022-12-31T14:10:14.597Z,67.83
2022-12-31T14:13:04.215Z,67.55
2022-12-31T14:15:40.870Z,68.53
2022-12-31T14:18:25.677Z,67.94
2022-12-31T14:21:02.818Z,67.17
2022-12-31T14:23:50.352Z,67.27
2022-12-31T14:26:31.276Z,67.50
2022-12-31T14:29:10.240Z,68.42
2022-12-31T14:31:57.405Z,67.55
2022-12-31T14:34:39.818Z,67.48
2022-12-31T14:37:38.610Z,67.87
2022-12-31T14:40:23.823Z,66.39
2022-12-31T14:43:06.444Z,66.75
2022-12-31T14:46:00.264Z,66.24
2022-12-31T14:48:53.482Z,66.78
2022-12-31T14:51:20.122Z,67.52
2022-12-31T14:53:54.746Z,67.63
2022-12-31T14:56:40.260Z,67.52
2022-12-31T14:59:25.272Z,68.59
2022-12-31T15:01:51.856Z,69.22
2022-12-31T15:04:31.322Z,69.22
2022-12-31T15:07:07.631Z,69.41
2022-12-31T15:09:57.739Z,70.02
2022-12-31T15:13:06.280Z,69.93
2022-12-31T15:15:54.930Z,69.68
2022-12-31T15:18:24.270Z,69.94
2022-12-31T15:21:22.718Z,69.64
2022-12-31T15:23:49.819Z,69.69
2022-12-31T15:26:31.530Z,69.51
2022-12-31T15:29:02.191Z,69.06
2022-12-31T15:31:29.086Z,69.64
2022-12-31T15:34:04.359Z,69.49
2022-12-31T15:36:34.548Z,70.28
2022-12-31T15:39:11.016Z,69.76
2022-12-31T15:41:46.243Z,69.54
2022-12-31T15:44:41.001Z,69.09
2022-12-31T15:47:23.910Z,69.59
2022-12-31T15:49:53.506Z,69.56
2022-12-31T15:52:29.003Z,69.36
2022-12-31T15:54:57.818Z,69.82
2022-12-31T15:57:32.873Z,70.21
2022-12-31T16:00:01.031Z,69.92
2022-12-31T16:02:28.802Z,69.97
2022-12-31T16:04:55.758Z,70.41
2022-12-31T16:07:24.690Z,70.32
2022-12-31T16:09:54.579Z,70.49
2022-12-31T16:12:32.774Z,70.95
2022-12-31T16:15:01.478Z,70.86
2022-12-31T16:17:29.482Z,71.07
2022-12-31T16:19:58.380Z,70.47
2022-12-31T16:22:28.625Z,70.17
2022-12-31T16:27:43.578Z,69.81
2022-12-31T16:30:36.401Z,69.59
2022-12-31T16:33:14.179Z,68.55
2022-12-31T16:35:41.155Z,69.12
2022-12-31T16:38:19.096Z,68.67
2022-12-31T16:41:03.624Z,68.68
2022-12-31T16:43:36.998Z,67.82
2022-12-31T16:46:19.269Z,67.44
2022-12-31T16:48:53.127Z,68.19
2022-12-31T16:51:22.377Z,67.95
2022-12-31T16:53:49.524Z,67.10
2022-12-31T16:56:29.982Z,67.66
2022-12-31T16:59:02.029Z,66.96
2022-12-31T17:01:31.583Z,66.74
2022-12-31T17:04:06.263Z,66.95
2022-12-31T17:06:33.679Z,66.31
2022-12-31T17:09:21.243Z,66.16
2022-12-31T17:11:54.100Z,65.74
2022-12-31T17:14:28.671Z,66.02
2022-12-31T17:17:06.180Z,66.73
2022-12-31T17:19:38.020Z,66.73
2022-12-31T17:22:08.010Z,67.20
2022-12-31T17:24:35.321Z,67.37
2022-12-31T17:27:05.287Z,67.13
2022-12-31T17:29:32.194Z,66.73
2022-12-31T17:32:01.705Z,67.91
2022-12-31T17:34:34.302Z,67.64
2022-12-31T17:37:12.891Z,67.52
2022-12-31T17:39:47.034Z,67.67
2022-12-31T17:42:21.884Z,68.19
2022-12-31T17:44:48.445Z,68.31
2022-12-31T17:47:14.951Z,68.16
2022-12-31T17:49:45.046Z,68.41
2022-12-31T17:52:15.681Z,68.83
2022-12-31T17:54:42.528Z,68.87
2022-12-31T17:57:23.897Z,68.89
2022-12-31T17:59:50.385Z,69.12
2022-12-31T18:02:16.896Z,69.30
2022-12-31T18:04:43.384Z,70.01
2022-12-31T18:07:09.763Z,69.90
2022-12-31T18:09:36.143Z,69.49
2022-12-31T18:12:05.779Z,69.83
2022-12-31T18:14:32.180Z,69.36
2022-12-31T18:16:58.588Z,69.43
2022-12-31T18:19:54.184Z,69.35
2022-12-31T18:22:16.179Z,69.66
2022-12-31T18:24:44.120Z,70.18
2022-12-31T18:27:18.534Z,69.66
2022-12-31T18:29:45.168Z,69.96
2022-12-31T18:32:26.840Z,70.52
2022-12-31T18:34:53.258Z,71.09
2022-12-31T18:37:22.284Z,70.44
2022-12-31T18:39:49.441Z,70.72
2022-12-31T18:42:18.503Z,71.30
2022-12-31T18:44:46.284Z,71.27
2022-12-31T18:47:18.785Z,71.42
2022-12-31T18:49:45.377Z,72.03
2022-12-31T18:52:17.123Z,71.35
2022-12-31T18:54:43.704Z,71.74
2022-12-31T18:57:15.244Z,71.12
2022-12-31T18:59:42.314Z,71.46
2022-12-31T19:02:16.296Z,71.95
2022-12-31T19:04:42.721Z,71.89
2022-12-31T19:07:09.119Z,72.80
2022-12-31T19:09:56.365Z,72.39
2022-12-31T19:12:21.911Z,72.24
2022-12-31T19:14:48.314Z,71.70
2022-12-31T19:17:14.743Z,72.02
2022-12-31T19:19:41.214Z,71.99
2022-12-31T19:22:14.619Z,72.24
2022-12-31T19:24:40.970Z,72.44
2022-12-31T19:27:08.748Z,72.11
2022-12-31T19:29:35.103Z,71.83
2022-12-31T19:32:02.297Z,71.75
2022-12-31T19:34:28.772Z,72.22
2022-12-31T19:36:55.155Z,71.34
2022-12-31T19:39:21.539Z,71.57
2022-12-31T19:41:54.660Z,70.64
2022-12-31T19:44:22.714Z,70.82
2022-12-31T19:46:49.274Z,71.02
2022-12-31T19:49:16.141Z,70.99
2022-12-31T19:51:42.540Z,70.39
2022-12-31T19:54:12.217Z,70.90
2022-12-31T19:56:38.729Z,71.05
2022-12-31T19:59:10.454Z,70.92
2022-12-31T20:01:37.816Z,70.72
2022-12-31T20:04:04.595Z,70.93
2022-12-31T20:06:31.229Z,70.52
2022-12-31T20:08:57.659Z,70.79
2022-12-31T20:11:24.763Z,70.56
2022-12-31T20:13:52.694Z,71.29
2022-12-31T20:16:21.638Z,70.22
2022-12-31T20:18:48.605Z,71.04
2022-12-31T20:21:17.921Z,71.00
2022-12-31T20:23:45.258Z,71.14
2022-12-31T20:26:12.133Z,71.37
2022-12-31T20:28:39.037Z,69.93
2022-12-31T20:31:11.504Z,69.93
2022-12-31T20:33:38.100Z,69.89
2022-12-31T20:36:08.682Z,69.61
2022-12-31T20:38:35.602Z,68.84
2022-12-31T20:41:03.939Z,67.97
2022-12-31T20:43:32.179Z,68.07
2022-12-31T20:45:59.833Z,68.05
2022-12-31T20:48:26.323Z,66.82
2022-12-31T20:50:57.155Z,67.94
2022-12-31T20:53:23.836Z,67.39
2022-12-31T20:55:50.574Z,67.61
2022-12-31T20:58:18.452Z,67.27
2022-12-31T21:00:49.323Z,67.25
2022-12-31T21:04:02.476Z,67.14
2022-12-31T21:06:05.590Z,66.61
2022-12-31T21:08:35.063Z,66.69
2022-12-31T21:11:03.359Z,66.39
2022-12-31T21:13:31.476Z,67.04
2022-12-31T21:15:58.517Z,66.52
2022-12-31T21:18:25.492Z,65.51
2022-12-31T21:20:52.870Z,65.44
2022-12-31T21:23:20.445Z,66.22
2022-12-31T21:25:50.116Z,65.57
2022-12-31T21:28:16.618Z,65.65
2022-12-31T21:30:44.563Z,65.43
2022-12-31T21:33:11.234Z,64.82
2022-12-31T21:35:47.020Z,64.82
2022-12-31T21:38:19.929Z,65.04
2022-12-31T21:40:47.646Z,65.54
2022-12-31T21:43:15.251Z,64.85
2022-12-31T21:45:42.689Z,64.64
2022-12-31T21:48:23.209Z,64.32
2022-12-31T21:50:52.659Z,64.89
2022-12-31T21:53:26.193Z,66.24
2022-12-31T21:56:12.041Z,65.14
2022-12-31T21:58:41.035Z,64.81
2022-12-31T22:01:28.346Z,63.43
2022-12-31T22:03:54.900Z,65.03
2022-12-31T22:06:23.219Z,64.11
2022-12-31T22:08:52.748Z,63.89
2022-12-31T22:11:22.253Z,63.46
2022-12-31T22:13:49.567Z,62.82
2022-12-31T22:16:18.374Z,63.54
2022-12-31T22:18:44.934Z,62.86
2022-12-31T22:21:19.284Z,63.47
2022-12-31T22:23:55.302Z,63.14
2022-12-31T22:26:25.074Z,63.45
2022-12-31T22:28:52.431Z,62.55
2022-12-31T22:31:24.620Z,63.48
2022-12-31T22:33:51.920Z,62.86
2022-12-31T22:36:20.426Z,62.78
2022-12-31T22:38:47.999Z,62.38
2022-12-31T22:41:19.804Z,63.89
2022-12-31T22:43:58.623Z,62.69
2022-12-31T22:46:29.165Z,62.51
2022-12-31T22:48:57.980Z,62.22
2022-12-31T22:51:24.513Z,62.46
2022-12-31T22:53:51.029Z,61.80
2022-12-31T22:56:18.758Z,61.96
2022-12-31T22:58:45.608Z,62.60
2022-12-31T23:01:18.747Z,62.18
2022-12-31T23:03:47.095Z,62.60
2022-12-31T23:06:13.771Z,63.18
2022-12-31T23:08:40.431Z,63.19
2022-12-31T23:11:09.421Z,62.34
2022-12-31T23:13:59.961Z,63.45
2022-12-31T23:16:47.739Z,62.89
2022-12-31T23:19:34.480Z,63.15
2022-12-31T23:22:19.972Z,63.42
2022-12-31T23:24:46.474Z,63.02
2022-12-31T23:27:13.054Z,63.05
2022-12-31T23:29:46.490Z,63.38
2022-12-31T23:32:14.981Z,63.25
2022-12-31T23:34:43.014Z,62.67
2022-12-31T23:37:09.526Z,62.57
2022-12-31T23:39:36.001Z,61.97
2022-12-31T23:42:02.641Z,61.65
2022-12-31T23:44:29.141Z,61.51
2022-12-31T23:46:55.642Z,61.57
2022-12-31T23:49:22.228Z,61.17
2022-12-31T23:51:48.700Z,61.02
2022-12-31T23:54:15.936Z,60.62
2022-12-31T23:56:42.402Z,60.59
2022-12-31T23:59:10.688Z,60.09
